sensor_id;sensor_type;location;lat;lon;timestamp;pressure;altitude;pressure_sealevel;temperature;humidity
6974;BME280;3527;52.376;8.990;2022-11-15T11:42:47;100326.75;;;15.26;81.21
6974;BME280;3527;52.376;8.990;2022-11-15T11:48:32;100317.97;;;15.21;80.57
6974;BME280;3527;52.376;8.990;2022-11-15T11:51:28;100306.78;;;15.13;79.77
6974;BME280;3527;52.376;8.990;2022-11-15T11:54:42;100334.84;;;15.21;80.51
6974;BME280;3527;52.376;8.990;2022-11-15T12:00:38;100314.44;;;15.13;79.53
6974;BME280;3527;52.376;8.990;2022-11-15T12:03:39;100312.75;;;15.19;78.43
6974;BME280;3527;52.376;8.990;2022-11-15T12:06:49;100293.94;;;15.12;78.07
6974;BME280;3527;52.376;8.990;2022-11-15T12:12:47;100296.31;;;15.18;77.80
6974;BME280;3527;52.376;8.990;2022-11-15T12:15:41;100293.44;;;15.25;77.68
6974;BME280;3527;52.376;8.990;2022-11-15T12:18:30;100289.47;;;15.19;77.94
6974;BME280;3527;52.376;8.990;2022-11-15T12:27:37;100306.00;;;15.13;78.93
6974;BME280;3527;52.376;8.990;2022-11-15T12:31:02;100334.91;;;15.13;80.45
6974;BME280;3527;52.376;8.990;2022-11-15T12:33:48;100346.97;;;15.14;81.38
6974;BME280;3527;52.376;8.990;2022-11-15T12:36:45;100353.38;;;15.14;82.05
6974;BME280;3527;52.376;8.990;2022-11-15T12:42:58;100351.81;;;15.10;82.41
6974;BME280;3527;52.376;8.990;2022-11-15T12:45:46;100355.81;;;15.12;82.83
6974;BME280;3527;52.376;8.990;2022-11-15T13:03:22;100367.56;;;14.93;84.28
6974;BME280;3527;52.376;8.990;2022-11-15T13:06:34;100353.56;;;14.86;83.92
6974;BME280;3527;52.376;8.990;2022-11-15T13:18:25;100360.91;;;14.66;85.37
6974;BME280;3527;52.376;8.990;2022-11-15T13:21:24;100359.34;;;14.58;85.56
6974;BME280;3527;52.376;8.990;2022-11-15T13:24:29;100362.53;;;14.60;85.71
6974;BME280;3527;52.376;8.990;2022-11-15T13:27:18;100350.84;;;14.68;85.59
6974;BME280;3527;52.376;8.990;2022-11-15T13:30:19;100353.34;;;14.48;86.19
6974;BME280;3527;52.376;8.990;2022-11-15T13:33:10;100329.69;;;14.39;86.29
6974;BME280;3527;52.376;8.990;2022-11-15T13:36:05;100347.00;;;14.27;87.13
6974;BME280;3527;52.376;8.990;2022-11-15T13:39:31;100360.63;;;14.28;87.43
6974;BME280;3527;52.376;8.990;2022-11-15T13:42:20;100353.00;;;14.32;87.77
6974;BME280;3527;52.376;8.990;2022-11-15T13:45:13;100346.94;;;14.37;87.48
6974;BME280;3527;52.376;8.990;2022-11-15T13:48:03;100346.63;;;14.14;88.24
6974;BME280;3527;52.376;8.990;2022-11-15T13:50:50;100354.69;;;13.90;89.26
6974;BME280;3527;52.376;8.990;2022-11-15T13:53:39;100357.97;;;13.75;90.25
6974;BME280;3527;52.376;8.990;2022-11-15T13:56:27;100366.34;;;13.68;90.73
6974;BME280;3527;52.376;8.990;2022-11-15T14:02:26;100382.81;;;13.51;92.98
6974;BME280;3527;52.376;8.990;2022-11-15T14:05:19;100388.03;;;13.53;93.87
6974;BME280;3527;52.376;8.990;2022-11-15T14:11:18;100385.22;;;13.53;95.17
6974;BME280;3527;52.376;8.990;2022-11-15T14:16:58;100364.38;;;13.75;94.51
6974;BME280;3527;52.376;8.990;2022-11-15T14:19:45;100349.94;;;13.70;94.52
6974;BME280;3527;52.376;8.990;2022-11-15T14:22:32;100368.38;;;13.60;95.02
6974;BME280;3527;52.376;8.990;2022-11-15T14:28:41;100366.78;;;13.41;96.46
6974;BME280;3527;52.376;8.990;2022-11-15T14:31:24;100370.00;;;13.43;97.34
6974;BME280;3527;52.376;8.990;2022-11-15T14:34:11;100366.78;;;13.34;97.70
6974;BME280;3527;52.376;8.990;2022-11-15T14:36:58;100366.38;;;13.28;98.75
6974;BME280;3527;52.376;8.990;2022-11-15T14:39:45;100372.38;;;13.30;99.43
6974;BME280;3527;52.376;8.990;2022-11-15T14:42:33;100361.19;;;13.45;98.67
6974;BME280;3527;52.376;8.990;2022-11-15T14:45:22;100347.56;;;13.50;98.58
6974;BME280;3527;52.376;8.990;2022-11-15T14:48:09;100343.16;;;13.49;98.56
6974;BME280;3527;52.376;8.990;2022-11-15T14:50:56;100333.13;;;13.45;98.18
6974;BME280;3527;52.376;8.990;2022-11-15T14:53:44;100327.53;;;13.45;97.73
6974;BME280;3527;52.376;8.990;2022-11-15T14:56:32;69532.09;;;-145.07;100.00
6974;BME280;3527;52.376;8.990;2022-11-15T14:59:19;69532.09;;;-145.07;100.00
6974;BME280;3527;52.376;8.990;2022-11-15T15:02:20;69532.09;;;-145.07;100.00
6974;BME280;3527;52.376;8.990;2022-11-15T15:05:14;69532.09;;;-145.07;100.00
6974;BME280;3527;52.376;8.990;2022-11-15T15:08:03;69532.09;;;-145.07;100.00
6974;BME280;3527;52.376;8.990;2022-11-15T15:10:51;69532.09;;;-145.07;100.00
6974;BME280;3527;52.376;8.990;2022-11-15T15:13:38;69532.09;;;-145.07;100.00
6974;BME280;3527;52.376;8.990;2022-11-15T15:16:25;69532.09;;;-145.07;100.00
6974;BME280;3527;52.376;8.990;2022-11-15T15:19:13;69532.09;;;-145.07;100.00
6974;BME280;3527;52.376;8.990;2022-11-15T15:21:59;69532.09;;;-145.07;100.00
6974;BME280;3527;52.376;8.990;2022-11-15T15:24:47;69532.09;;;-145.07;100.00
6974;BME280;3527;52.376;8.990;2022-11-15T15:27:34;69532.09;;;-145.07;100.00
6974;BME280;3527;52.376;8.990;2022-11-15T15:30:22;69532.09;;;-145.07;100.00
6974;BME280;3527;52.376;8.990;2022-11-15T15:33:09;69532.09;;;-145.07;100.00
6974;BME280;3527;52.376;8.990;2022-11-15T15:35:56;69532.09;;;-145.07;100.00
6974;BME280;3527;52.376;8.990;2022-11-15T15:38:44;69532.09;;;-145.07;100.00
6974;BME280;3527;52.376;8.990;2022-11-15T15:41:33;69532.09;;;-145.07;100.00
6974;BME280;3527;52.376;8.990;2022-11-15T15:44:20;69532.09;;;-145.07;100.00
6974;BME280;3527;52.376;8.990;2022-11-15T15:47:14;69532.09;;;-145.07;100.00
6974;BME280;3527;52.376;8.990;2022-11-15T15:50:03;69532.09;;;-145.07;100.00
6974;BME280;3527;52.376;8.990;2022-11-15T15:52:55;69532.09;;;-145.07;100.00
6974;BME280;3527;52.376;8.990;2022-11-15T15:55:43;69532.09;;;-145.07;100.00
6974;BME280;3527;52.376;8.990;2022-11-15T15:58:30;69532.09;;;-145.07;100.00
6974;BME280;3527;52.376;8.990;2022-11-15T16:01:19;69532.09;;;-145.07;100.00
6974;BME280;3527;52.376;8.990;2022-11-15T16:04:06;69532.09;;;-145.07;100.00
6974;BME280;3527;52.376;8.990;2022-11-15T16:06:58;69532.09;;;-145.07;100.00
6974;BME280;3527;52.376;8.990;2022-11-15T16:09:45;69532.09;;;-145.07;100.00
6974;BME280;3527;52.376;8.990;2022-11-15T16:12:48;69532.09;;;-145.07;100.00
6974;BME280;3527;52.376;8.990;2022-11-15T16:15:35;69532.09;;;-145.07;100.00
6974;BME280;3527;52.376;8.990;2022-11-15T16:18:22;69532.09;;;-145.07;100.00
6974;BME280;3527;52.376;8.990;2022-11-15T16:21:09;69532.09;;;-145.07;100.00
6974;BME280;3527;52.376;8.990;2022-11-15T16:23:56;69532.09;;;-145.07;100.00
6974;BME280;3527;52.376;8.990;2022-11-15T16:26:44;69532.09;;;-145.07;100.00
6974;BME280;3527;52.376;8.990;2022-11-15T16:29:32;69532.09;;;-145.07;100.00
6974;BME280;3527;52.376;8.990;2022-11-15T16:32:19;69532.09;;;-145.07;100.00
6974;BME280;3527;52.376;8.990;2022-11-15T16:35:10;69532.09;;;-145.07;100.00
6974;BME280;3527;52.376;8.990;2022-11-15T16:37:57;69532.09;;;-145.07;100.00
6974;BME280;3527;52.376;8.990;2022-11-15T16:40:44;69532.09;;;-145.07;100.00
6974;BME280;3527;52.376;8.990;2022-11-15T16:43:31;69532.09;;;-145.07;100.00
6974;BME280;3527;52.376;8.990;2022-11-15T16:46:20;69532.09;;;-145.07;100.00
6974;BME280;3527;52.376;8.990;2022-11-15T16:49:14;69532.09;;;-145.07;100.00
6974;BME280;3527;52.376;8.990;2022-11-15T16:52:01;69532.09;;;-145.07;100.00
6974;BME280;3527;52.376;8.990;2022-11-15T16:54:48;69532.09;;;-145.07;100.00
6974;BME280;3527;52.376;8.990;2022-11-15T16:57:35;69532.09;;;-145.07;100.00
6974;BME280;3527;52.376;8.990;2022-11-15T17:00:23;69532.09;;;-145.07;100.00
6974;BME280;3527;52.376;8.990;2022-11-15T17:03:10;69532.09;;;-145.07;100.00
6974;BME280;3527;52.376;8.990;2022-11-15T17:05:58;69532.09;;;-145.07;100.00
6974;BME280;3527;52.376;8.990;2022-11-15T17:08:48;69532.09;;;-145.07;100.00
6974;BME280;3527;52.376;8.990;2022-11-15T17:11:35;69532.09;;;-145.07;100.00
6974;BME280;3527;52.376;8.990;2022-11-15T17:14:22;69532.09;;;-145.07;100.00
6974;BME280;3527;52.376;8.990;2022-11-15T17:17:09;69532.09;;;-145.07;100.00
6974;BME280;3527;52.376;8.990;2022-11-15T17:19:56;69532.09;;;-145.07;100.00
6974;BME280;3527;52.376;8.990;2022-11-15T17:22:43;69532.09;;;-145.07;100.00
6974;BME280;3527;52.376;8.990;2022-11-15T17:25:30;69532.09;;;-145.07;100.00
6974;BME280;3527;52.376;8.990;2022-11-15T17:28:17;69532.09;;;-145.07;100.00
6974;BME280;3527;52.376;8.990;2022-11-15T17:31:09;69532.09;;;-145.07;100.00
6974;BME280;3527;52.376;8.990;2022-11-15T17:33:57;69532.09;;;-145.07;100.00
6974;BME280;3527;52.376;8.990;2022-11-15T17:36:44;69532.09;;;-145.07;100.00
6974;BME280;3527;52.376;8.990;2022-11-15T17:39:31;69532.09;;;-145.07;100.00
6974;BME280;3527;52.376;8.990;2022-11-15T17:42:18;69532.09;;;-145.07;100.00
6974;BME280;3527;52.376;8.990;2022-11-15T17:45:06;69532.09;;;-145.07;100.00
6974;BME280;3527;52.376;8.990;2022-11-15T17:47:56;69532.09;;;-145.07;100.00
6974;BME280;3527;52.376;8.990;2022-11-15T17:50:43;69532.09;;;-145.07;100.00
6974;BME280;3527;52.376;8.990;2022-11-15T17:53:35;69532.09;;;-145.07;100.00
6974;BME280;3527;52.376;8.990;2022-11-15T17:56:26;69532.09;;;-145.07;100.00
6974;BME280;3527;52.376;8.990;2022-11-15T17:59:13;69532.09;;;-145.07;100.00
6974;BME280;3527;52.376;8.990;2022-11-15T18:02:08;69532.09;;;-145.07;100.00
6974;BME280;3527;52.376;8.990;2022-11-15T18:04:55;69532.09;;;-145.07;100.00
6974;BME280;3527;52.376;8.990;2022-11-15T18:07:42;69532.09;;;-145.07;100.00
6974;BME280;3527;52.376;8.990;2022-11-15T18:10:29;69532.09;;;-145.07;100.00
6974;BME280;3527;52.376;8.990;2022-11-15T18:13:16;69532.09;;;-145.07;100.00
6974;BME280;3527;52.376;8.990;2022-11-15T18:16:04;69532.09;;;-145.07;100.00
6974;BME280;3527;52.376;8.990;2022-11-15T18:18:53;69532.09;;;-145.07;100.00
6974;BME280;3527;52.376;8.990;2022-11-15T18:21:41;69532.09;;;-145.07;100.00
6974;BME280;3527;52.376;8.990;2022-11-15T18:24:47;69532.09;;;-145.07;100.00
6974;BME280;3527;52.376;8.990;2022-11-15T18:27:34;69532.09;;;-145.07;100.00
6974;BME280;3527;52.376;8.990;2022-11-15T18:30:21;69532.09;;;-145.07;100.00
6974;BME280;3527;52.376;8.990;2022-11-15T18:33:08;69532.09;;;-145.07;100.00
6974;BME280;3527;52.376;8.990;2022-11-15T18:36:04;69532.09;;;-145.07;100.00
6974;BME280;3527;52.376;8.990;2022-11-15T18:38:56;69532.09;;;-145.07;100.00
6974;BME280;3527;52.376;8.990;2022-11-15T18:41:44;69532.09;;;-145.07;100.00
6974;BME280;3527;52.376;8.990;2022-11-15T18:44:32;69532.09;;;-145.07;100.00
6974;BME280;3527;52.376;8.990;2022-11-15T18:47:20;69532.09;;;-145.07;100.00
6974;BME280;3527;52.376;8.990;2022-11-15T18:50:07;69532.09;;;-145.07;100.00
6974;BME280;3527;52.376;8.990;2022-11-15T18:52:54;69532.09;;;-145.07;100.00
6974;BME280;3527;52.376;8.990;2022-11-15T18:55:41;69532.09;;;-145.07;100.00
6974;BME280;3527;52.376;8.990;2022-11-15T18:58:33;69532.09;;;-145.07;100.00
6974;BME280;3527;52.376;8.990;2022-11-15T19:01:26;69532.09;;;-145.07;100.00
6974;BME280;3527;52.376;8.990;2022-11-15T19:04:16;69532.09;;;-145.07;100.00
6974;BME280;3527;52.376;8.990;2022-11-15T19:07:04;69532.09;;;-145.07;100.00
6974;BME280;3527;52.376;8.990;2022-11-15T19:09:51;69532.09;;;-145.07;100.00
6974;BME280;3527;52.376;8.990;2022-11-15T19:12:38;69532.09;;;-145.07;100.00
6974;BME280;3527;52.376;8.990;2022-11-15T19:15:25;69532.09;;;-145.07;100.00
6974;BME280;3527;52.376;8.990;2022-11-15T19:18:13;69532.09;;;-145.07;100.00
6974;BME280;3527;52.376;8.990;2022-11-15T19:21:11;69532.09;;;-145.07;100.00
6974;BME280;3527;52.376;8.990;2022-11-15T19:24:01;69532.09;;;-145.07;100.00
6974;BME280;3527;52.376;8.990;2022-11-15T19:26:49;69532.09;;;-145.07;100.00
6974;BME280;3527;52.376;8.990;2022-11-15T19:29:36;69532.09;;;-145.07;100.00
6974;BME280;3527;52.376;8.990;2022-11-15T19:32:23;69532.09;;;-145.07;100.00
6974;BME280;3527;52.376;8.990;2022-11-15T19:35:10;69532.09;;;-145.07;100.00
6974;BME280;3527;52.376;8.990;2022-11-15T19:37:58;69532.09;;;-145.07;100.00
6974;BME280;3527;52.376;8.990;2022-11-15T19:40:45;69532.09;;;-145.07;100.00
6974;BME280;3527;52.376;8.990;2022-11-15T19:43:32;69532.09;;;-145.07;100.00
6974;BME280;3527;52.376;8.990;2022-11-15T19:46:21;69532.09;;;-145.07;100.00
6974;BME280;3527;52.376;8.990;2022-11-15T19:49:09;69532.09;;;-145.07;100.00
6974;BME280;3527;52.376;8.990;2022-11-15T19:51:57;69532.09;;;-145.07;100.00
6974;BME280;3527;52.376;8.990;2022-11-15T19:54:44;69532.09;;;-145.07;100.00
6974;BME280;3527;52.376;8.990;2022-11-15T19:57:31;69532.09;;;-145.07;100.00
6974;BME280;3527;52.376;8.990;2022-11-15T20:00:19;69532.09;;;-145.07;100.00
6974;BME280;3527;52.376;8.990;2022-11-15T20:03:06;69532.09;;;-145.07;100.00
6974;BME280;3527;52.376;8.990;2022-11-15T20:05:59;69532.09;;;-145.07;100.00
6974;BME280;3527;52.376;8.990;2022-11-15T20:08:46;69532.09;;;-145.07;100.00
6974;BME280;3527;52.376;8.990;2022-11-15T20:11:33;69532.09;;;-145.07;100.00
6974;BME280;3527;52.376;8.990;2022-11-15T20:14:23;69532.09;;;-145.07;100.00
6974;BME280;3527;52.376;8.990;2022-11-15T20:17:10;69532.09;;;-145.07;100.00
6974;BME280;3527;52.376;8.990;2022-11-15T20:19:57;69532.09;;;-145.07;100.00
6974;BME280;3527;52.376;8.990;2022-11-15T20:22:45;69532.09;;;-145.07;100.00
6974;BME280;3527;52.376;8.990;2022-11-15T20:25:34;69532.09;;;-145.07;100.00
6974;BME280;3527;52.376;8.990;2022-11-15T20:28:25;69532.09;;;-145.07;100.00
6974;BME280;3527;52.376;8.990;2022-11-15T20:31:13;69532.09;;;-145.07;100.00
6974;BME280;3527;52.376;8.990;2022-11-15T20:34:01;69532.09;;;-145.07;100.00
6974;BME280;3527;52.376;8.990;2022-11-15T20:36:48;69532.09;;;-145.07;100.00
6974;BME280;3527;52.376;8.990;2022-11-15T20:39:35;69532.09;;;-145.07;100.00
6974;BME280;3527;52.376;8.990;2022-11-15T20:42:21;69532.09;;;-145.07;100.00
6974;BME280;3527;52.376;8.990;2022-11-15T20:45:09;69532.09;;;-145.07;100.00
6974;BME280;3527;52.376;8.990;2022-11-15T20:47:59;69532.09;;;-145.07;100.00
6974;BME280;3527;52.376;8.990;2022-11-15T20:50:46;69532.09;;;-145.07;100.00
6974;BME280;3527;52.376;8.990;2022-11-15T20:53:33;69532.09;;;-145.07;100.00
6974;BME280;3527;52.376;8.990;2022-11-15T20:56:21;69532.09;;;-145.07;100.00
6974;BME280;3527;52.376;8.990;2022-11-15T20:59:08;69532.09;;;-145.07;100.00
6974;BME280;3527;52.376;8.990;2022-11-15T21:01:55;69532.09;;;-145.07;100.00
6974;BME280;3527;52.376;8.990;2022-11-15T21:04:42;69532.09;;;-145.07;100.00
6974;BME280;3527;52.376;8.990;2022-11-15T21:07:30;69532.09;;;-145.07;100.00
6974;BME280;3527;52.376;8.990;2022-11-15T21:10:17;69532.09;;;-145.07;100.00
6974;BME280;3527;52.376;8.990;2022-11-15T21:13:22;69532.09;;;-145.07;100.00
6974;BME280;3527;52.376;8.990;2022-11-15T21:16:09;69532.09;;;-145.07;100.00
6974;BME280;3527;52.376;8.990;2022-11-15T21:18:56;69532.09;;;-145.07;100.00
6974;BME280;3527;52.376;8.990;2022-11-15T21:21:43;69532.09;;;-145.07;100.00
6974;BME280;3527;52.376;8.990;2022-11-15T21:24:30;69532.09;;;-145.07;100.00
6974;BME280;3527;52.376;8.990;2022-11-15T21:27:17;69532.09;;;-145.07;100.00
6974;BME280;3527;52.376;8.990;2022-11-15T21:30:05;69532.09;;;-145.07;100.00
6974;BME280;3527;52.376;8.990;2022-11-15T21:32:52;69532.09;;;-145.07;100.00
6974;BME280;3527;52.376;8.990;2022-11-15T21:35:39;69532.09;;;-145.07;100.00
6974;BME280;3527;52.376;8.990;2022-11-15T21:38:29;69532.09;;;-145.07;100.00
6974;BME280;3527;52.376;8.990;2022-11-15T21:41:16;69532.09;;;-145.07;100.00
6974;BME280;3527;52.376;8.990;2022-11-15T21:44:03;69532.09;;;-145.07;100.00
6974;BME280;3527;52.376;8.990;2022-11-15T21:46:50;69532.09;;;-145.07;100.00
6974;BME280;3527;52.376;8.990;2022-11-15T21:49:37;69532.09;;;-145.07;100.00
6974;BME280;3527;52.376;8.990;2022-11-15T21:52:25;69532.09;;;-145.07;100.00
6974;BME280;3527;52.376;8.990;2022-11-15T21:55:12;69532.09;;;-145.07;100.00
6974;BME280;3527;52.376;8.990;2022-11-15T21:57:59;69532.09;;;-145.07;100.00
6974;BME280;3527;52.376;8.990;2022-11-15T22:00:46;69532.09;;;-145.07;100.00
6974;BME280;3527;52.376;8.990;2022-11-15T22:03:52;69532.09;;;-145.07;100.00
6974;BME280;3527;52.376;8.990;2022-11-15T22:06:39;69532.09;;;-145.07;100.00
6974;BME280;3527;52.376;8.990;2022-11-15T22:09:26;69532.09;;;-145.07;100.00
6974;BME280;3527;52.376;8.990;2022-11-15T22:12:13;69532.09;;;-145.07;100.00
6974;BME280;3527;52.376;8.990;2022-11-15T22:15:00;69532.09;;;-145.07;100.00
6974;BME280;3527;52.376;8.990;2022-11-15T22:17:47;77393.16;;;13.42;97.73
6974;BME280;3527;52.376;8.990;2022-11-15T22:21:01;69532.09;;;-145.07;100.00
6974;BME280;3527;52.376;8.990;2022-11-15T22:23:49;99986.53;;;-145.07;100.00
6974;BME280;3527;52.376;8.990;2022-11-15T22:26:36;69532.09;;;-145.07;100.00
6974;BME280;3527;52.376;8.990;2022-11-15T22:29:23;99982.13;;;11.38;100.00
6974;BME280;3527;52.376;8.990;2022-11-15T22:32:10;69532.09;;;-145.07;100.00
6974;BME280;3527;52.376;8.990;2022-11-15T22:34:57;69532.09;;;-145.07;100.00
6974;BME280;3527;52.376;8.990;2022-11-15T22:37:44;69532.09;;;-145.07;100.00
6974;BME280;3527;52.376;8.990;2022-11-15T22:40:31;69532.09;;;-145.07;100.00
6974;BME280;3527;52.376;8.990;2022-11-15T22:43:20;69532.09;;;-145.07;100.00
6974;BME280;3527;52.376;8.990;2022-11-15T22:46:09;69532.09;;;-145.07;100.00
6974;BME280;3527;52.376;8.990;2022-11-15T22:48:58;69532.09;;;-145.07;100.00
6974;BME280;3527;52.376;8.990;2022-11-15T22:51:49;69532.09;;;-145.07;100.00
6974;BME280;3527;52.376;8.990;2022-11-15T22:54:36;69532.09;;;-145.07;100.00
6974;BME280;3527;52.376;8.990;2022-11-15T22:57:23;69532.09;;;-145.07;100.00
6974;BME280;3527;52.376;8.990;2022-11-15T23:00:12;69532.09;;;-145.07;100.00
6974;BME280;3527;52.376;8.990;2022-11-15T23:03:00;69532.09;;;-145.07;100.00
6974;BME280;3527;52.376;8.990;2022-11-15T23:05:48;69532.09;;;-145.07;100.00
6974;BME280;3527;52.376;8.990;2022-11-15T23:08:35;69532.09;;;-145.07;100.00
6974;BME280;3527;52.376;8.990;2022-11-15T23:11:23;69532.09;;;-145.07;100.00
6974;BME280;3527;52.376;8.990;2022-11-15T23:14:28;69532.09;;;-145.07;100.00
6974;BME280;3527;52.376;8.990;2022-11-15T23:17:15;69532.09;;;-145.07;100.00
6974;BME280;3527;52.376;8.990;2022-11-15T23:20:02;69532.09;;;-145.07;100.00
6974;BME280;3527;52.376;8.990;2022-11-15T23:23:11;69532.09;;;-145.07;100.00
6974;BME280;3527;52.376;8.990;2022-11-15T23:25:58;69532.09;;;-145.07;100.00
6974;BME280;3527;52.376;8.990;2022-11-15T23:28:45;69532.09;;;-145.07;100.00
6974;BME280;3527;52.376;8.990;2022-11-15T23:31:32;69532.09;;;-145.07;100.00
6974;BME280;3527;52.376;8.990;2022-11-15T23:34:47;69532.09;;;-145.07;100.00
6974;BME280;3527;52.376;8.990;2022-11-15T23:37:34;69532.09;;;-145.07;100.00
6974;BME280;3527;52.376;8.990;2022-11-15T23:40:21;99910.53;;;10.91;100.00
6974;BME280;3527;52.376;8.990;2022-11-15T23:43:08;69532.09;;;-145.07;100.00
6974;BME280;3527;52.376;8.990;2022-11-15T23:45:55;69532.09;;;-145.07;100.00
6974;BME280;3527;52.376;8.990;2022-11-15T23:48:42;69532.09;;;-145.07;100.00
6974;BME280;3527;52.376;8.990;2022-11-15T23:51:29;69532.09;;;-145.07;100.00
6974;BME280;3527;52.376;8.990;2022-11-15T23:54:16;69532.09;;;-145.07;100.00
6974;BME280;3527;52.376;8.990;2022-11-15T23:57:04;69532.09;;;-145.07;100.00
6974;BME280;3527;52.376;8.990;2022-11-15T23:59:52;69532.09;;;-145.07;100.00
